sensor_id;sensor_type;location;lat;lon;timestamp;P1;durP1;ratioP1;P2;durP2;ratioP2
77880;SDS011;67077;50.298;18.996;2023-04-06T00:01:56;81.30;;;32.30;;
77880;SDS011;67077;50.298;18.996;2023-04-06T00:04:24;82.00;;;31.30;;
77880;SDS011;67077;50.298;18.996;2023-04-06T00:06:52;73.20;;;30.10;;
77880;SDS011;67077;50.298;18.996;2023-04-06T00:09:20;74.90;;;29.80;;
77880;SDS011;67077;50.298;18.996;2023-04-06T00:11:48;69.20;;;26.10;;
77880;SDS011;67077;50.298;18.996;2023-04-06T00:14:16;75.80;;;30.50;;
77880;SDS011;67077;50.298;18.996;2023-04-06T00:16:44;65.20;;;27.00;;
77880;SDS011;67077;50.298;18.996;2023-04-06T00:19:13;71.50;;;29.80;;
77880;SDS011;67077;50.298;18.996;2023-04-06T00:21:41;62.00;;;26.20;;
77880;SDS011;67077;50.298;18.996;2023-04-06T00:24:09;61.40;;;25.60;;
77880;SDS011;67077;50.298;18.996;2023-04-06T00:26:36;57.10;;;24.50;;
77880;SDS011;67077;50.298;18.996;2023-04-06T00:29:04;66.10;;;26.50;;
77880;SDS011;67077;50.298;18.996;2023-04-06T00:31:32;62.70;;;26.00;;
77880;SDS011;67077;50.298;18.996;2023-04-06T00:34:00;58.60;;;23.90;;
77880;SDS011;67077;50.298;18.996;2023-04-06T00:36:28;56.50;;;23.50;;
77880;SDS011;67077;50.298;18.996;2023-04-06T00:38:56;62.60;;;26.30;;
77880;SDS011;67077;50.298;18.996;2023-04-06T00:41:24;63.90;;;27.30;;
77880;SDS011;67077;50.298;18.996;2023-04-06T00:43:53;59.90;;;24.80;;
77880;SDS011;67077;50.298;18.996;2023-04-06T00:46:22;59.80;;;25.50;;
77880;SDS011;67077;50.298;18.996;2023-04-06T00:48:50;59.90;;;25.30;;
77880;SDS011;67077;50.298;18.996;2023-04-06T00:51:18;63.20;;;25.80;;
77880;SDS011;67077;50.298;18.996;2023-04-06T00:53:46;64.70;;;27.10;;
77880;SDS011;67077;50.298;18.996;2023-04-06T00:56:14;65.10;;;25.80;;
77880;SDS011;67077;50.298;18.996;2023-04-06T00:58:42;60.10;;;26.40;;
77880;SDS011;67077;50.298;18.996;2023-04-06T01:01:10;60.30;;;25.20;;
77880;SDS011;67077;50.298;18.996;2023-04-06T01:03:38;58.90;;;25.30;;
77880;SDS011;67077;50.298;18.996;2023-04-06T01:06:06;59.90;;;25.90;;
77880;SDS011;67077;50.298;18.996;2023-04-06T01:08:33;66.90;;;27.10;;
77880;SDS011;67077;50.298;18.996;2023-04-06T01:11:01;53.40;;;23.40;;
77880;SDS011;67077;50.298;18.996;2023-04-06T01:13:29;55.20;;;23.80;;
77880;SDS011;67077;50.298;18.996;2023-04-06T01:15:57;58.20;;;24.80;;
77880;SDS011;67077;50.298;18.996;2023-04-06T01:18:29;56.30;;;24.40;;
77880;SDS011;67077;50.298;18.996;2023-04-06T01:20:57;60.00;;;24.70;;
77880;SDS011;67077;50.298;18.996;2023-04-06T01:25:57;57.60;;;24.20;;
77880;SDS011;67077;50.298;18.996;2023-04-06T01:28:25;59.50;;;24.60;;
77880;SDS011;67077;50.298;18.996;2023-04-06T01:30:53;63.70;;;26.40;;
77880;SDS011;67077;50.298;18.996;2023-04-06T01:33:21;61.40;;;25.40;;
77880;SDS011;67077;50.298;18.996;2023-04-06T01:35:49;62.50;;;26.20;;
77880;SDS011;67077;50.298;18.996;2023-04-06T01:38:16;72.60;;;31.20;;
77880;SDS011;67077;50.298;18.996;2023-04-06T01:40:44;67.20;;;29.00;;
77880;SDS011;67077;50.298;18.996;2023-04-06T01:43:12;65.70;;;28.00;;
77880;SDS011;67077;50.298;18.996;2023-04-06T01:45:40;60.30;;;27.00;;
77880;SDS011;67077;50.298;18.996;2023-04-06T01:48:08;53.40;;;24.90;;
77880;SDS011;67077;50.298;18.996;2023-04-06T01:50:37;57.00;;;23.60;;
77880;SDS011;67077;50.298;18.996;2023-04-06T01:53:04;54.30;;;24.50;;
77880;SDS011;67077;50.298;18.996;2023-04-06T01:55:32;56.70;;;24.20;;
77880;SDS011;67077;50.298;18.996;2023-04-06T01:58:00;49.40;;;22.60;;
77880;SDS011;67077;50.298;18.996;2023-04-06T02:00:28;60.00;;;26.20;;
77880;SDS011;67077;50.298;18.996;2023-04-06T02:02:56;60.10;;;26.00;;
77880;SDS011;67077;50.298;18.996;2023-04-06T02:05:25;54.10;;;24.60;;
77880;SDS011;67077;50.298;18.996;2023-04-06T02:07:53;55.30;;;25.30;;
77880;SDS011;67077;50.298;18.996;2023-04-06T02:10:21;53.50;;;24.90;;
77880;SDS011;67077;50.298;18.996;2023-04-06T02:12:49;53.10;;;24.10;;
77880;SDS011;67077;50.298;18.996;2023-04-06T02:15:17;54.90;;;23.90;;
77880;SDS011;67077;50.298;18.996;2023-04-06T02:17:45;57.00;;;23.60;;
77880;SDS011;67077;50.298;18.996;2023-04-06T02:20:13;51.90;;;22.90;;
77880;SDS011;67077;50.298;18.996;2023-04-06T02:22:41;49.30;;;22.70;;
77880;SDS011;67077;50.298;18.996;2023-04-06T02:25:09;45.40;;;20.60;;
77880;SDS011;67077;50.298;18.996;2023-04-06T02:27:37;51.70;;;22.30;;
77880;SDS011;67077;50.298;18.996;2023-04-06T02:30:05;48.70;;;21.70;;
77880;SDS011;67077;50.298;18.996;2023-04-06T02:32:36;46.70;;;21.00;;
77880;SDS011;67077;50.298;18.996;2023-04-06T02:35:04;59.50;;;25.10;;
77880;SDS011;67077;50.298;18.996;2023-04-06T02:37:32;51.90;;;23.10;;
77880;SDS011;67077;50.298;18.996;2023-04-06T02:40:00;50.60;;;21.30;;
77880;SDS011;67077;50.298;18.996;2023-04-06T02:42:28;46.00;;;22.30;;
77880;SDS011;67077;50.298;18.996;2023-04-06T02:44:57;53.00;;;24.00;;
77880;SDS011;67077;50.298;18.996;2023-04-06T02:47:24;57.40;;;24.20;;
77880;SDS011;67077;50.298;18.996;2023-04-06T02:49:52;53.50;;;24.10;;
77880;SDS011;67077;50.298;18.996;2023-04-06T02:52:20;50.30;;;22.50;;
77880;SDS011;67077;50.298;18.996;2023-04-06T02:54:48;47.90;;;21.80;;
77880;SDS011;67077;50.298;18.996;2023-04-06T02:57:18;62.70;;;24.40;;
77880;SDS011;67077;50.298;18.996;2023-04-06T02:59:46;54.20;;;24.60;;
77880;SDS011;67077;50.298;18.996;2023-04-06T03:02:14;49.90;;;23.60;;
77880;SDS011;67077;50.298;18.996;2023-04-06T03:04:43;53.40;;;23.80;;
77880;SDS011;67077;50.298;18.996;2023-04-06T03:07:12;50.40;;;24.80;;
77880;SDS011;67077;50.298;18.996;2023-04-06T03:09:39;51.70;;;24.30;;
77880;SDS011;67077;50.298;18.996;2023-04-06T03:12:08;57.10;;;26.70;;
77880;SDS011;67077;50.298;18.996;2023-04-06T03:14:35;65.70;;;28.10;;
77880;SDS011;67077;50.298;18.996;2023-04-06T03:17:03;63.40;;;26.20;;
77880;SDS011;67077;50.298;18.996;2023-04-06T03:21:02;51.70;;;24.10;;
77880;SDS011;67077;50.298;18.996;2023-04-06T03:23:30;52.30;;;24.40;;
77880;SDS011;67077;50.298;18.996;2023-04-06T03:25:58;52.90;;;24.60;;
77880;SDS011;67077;50.298;18.996;2023-04-06T03:28:26;56.40;;;25.30;;
77880;SDS011;67077;50.298;18.996;2023-04-06T03:30:54;54.80;;;24.10;;
77880;SDS011;67077;50.298;18.996;2023-04-06T03:33:22;48.10;;;23.40;;
77880;SDS011;67077;50.298;18.996;2023-04-06T03:35:50;52.50;;;24.30;;
77880;SDS011;67077;50.298;18.996;2023-04-06T03:38:18;60.70;;;25.50;;
77880;SDS011;67077;50.298;18.996;2023-04-06T03:40:46;50.10;;;22.90;;
77880;SDS011;67077;50.298;18.996;2023-04-06T03:43:14;48.20;;;23.20;;
77880;SDS011;67077;50.298;18.996;2023-04-06T03:45:42;50.50;;;24.80;;
77880;SDS011;67077;50.298;18.996;2023-04-06T03:48:10;53.90;;;23.70;;
77880;SDS011;67077;50.298;18.996;2023-04-06T03:50:38;50.60;;;22.30;;
77880;SDS011;67077;50.298;18.996;2023-04-06T03:53:06;50.30;;;22.90;;
77880;SDS011;67077;50.298;18.996;2023-04-06T03:55:34;50.60;;;23.30;;
77880;SDS011;67077;50.298;18.996;2023-04-06T03:58:01;58.20;;;26.20;;
77880;SDS011;67077;50.298;18.996;2023-04-06T04:00:29;54.10;;;23.90;;
77880;SDS011;67077;50.298;18.996;2023-04-06T04:02:58;52.40;;;23.90;;
77880;SDS011;67077;50.298;18.996;2023-04-06T04:05:26;61.00;;;26.20;;
77880;SDS011;67077;50.298;18.996;2023-04-06T04:07:54;52.40;;;23.80;;
77880;SDS011;67077;50.298;18.996;2023-04-06T04:10:22;58.90;;;26.30;;
77880;SDS011;67077;50.298;18.996;2023-04-06T04:12:50;57.80;;;26.30;;
77880;SDS011;67077;50.298;18.996;2023-04-06T04:15:18;62.70;;;27.00;;
77880;SDS011;67077;50.298;18.996;2023-04-06T04:17:47;58.50;;;25.60;;
77880;SDS011;67077;50.298;18.996;2023-04-06T04:20:16;70.10;;;29.30;;
77880;SDS011;67077;50.298;18.996;2023-04-06T04:22:44;59.20;;;26.00;;
77880;SDS011;67077;50.298;18.996;2023-04-06T04:25:12;51.70;;;24.40;;
77880;SDS011;67077;50.298;18.996;2023-04-06T04:27:40;61.10;;;26.90;;
77880;SDS011;67077;50.298;18.996;2023-04-06T04:30:08;63.20;;;25.70;;
77880;SDS011;67077;50.298;18.996;2023-04-06T04:32:36;90.90;;;33.40;;
77880;SDS011;67077;50.298;18.996;2023-04-06T04:35:04;88.90;;;35.50;;
77880;SDS011;67077;50.298;18.996;2023-04-06T04:37:33;98.10;;;37.30;;
77880;SDS011;67077;50.298;18.996;2023-04-06T04:40:02;89.00;;;36.30;;
77880;SDS011;67077;50.298;18.996;2023-04-06T04:42:30;87.10;;;35.10;;
77880;SDS011;67077;50.298;18.996;2023-04-06T04:44:58;85.50;;;37.00;;
77880;SDS011;67077;50.298;18.996;2023-04-06T04:47:26;80.00;;;35.60;;
77880;SDS011;67077;50.298;18.996;2023-04-06T04:49:54;78.30;;;32.40;;
77880;SDS011;67077;50.298;18.996;2023-04-06T04:52:23;76.00;;;31.20;;
77880;SDS011;67077;50.298;18.996;2023-04-06T04:54:50;69.90;;;28.70;;
77880;SDS011;67077;50.298;18.996;2023-04-06T04:57:19;58.90;;;25.10;;
77880;SDS011;67077;50.298;18.996;2023-04-06T04:59:47;60.80;;;25.10;;
77880;SDS011;67077;50.298;18.996;2023-04-06T05:02:19;59.60;;;25.90;;
77880;SDS011;67077;50.298;18.996;2023-04-06T05:04:47;54.50;;;24.00;;
77880;SDS011;67077;50.298;18.996;2023-04-06T05:07:15;54.40;;;23.50;;
77880;SDS011;67077;50.298;18.996;2023-04-06T05:09:42;59.40;;;27.10;;
77880;SDS011;67077;50.298;18.996;2023-04-06T05:12:10;65.80;;;29.30;;
77880;SDS011;67077;50.298;18.996;2023-04-06T05:14:38;76.60;;;32.20;;
77880;SDS011;67077;50.298;18.996;2023-04-06T05:17:07;79.30;;;32.90;;
77880;SDS011;67077;50.298;18.996;2023-04-06T05:19:35;70.90;;;31.80;;
77880;SDS011;67077;50.298;18.996;2023-04-06T05:22:03;70.20;;;32.00;;
77880;SDS011;67077;50.298;18.996;2023-04-06T05:24:31;73.20;;;31.20;;
77880;SDS011;67077;50.298;18.996;2023-04-06T05:26:59;65.60;;;28.20;;
77880;SDS011;67077;50.298;18.996;2023-04-06T05:29:27;66.60;;;28.90;;
77880;SDS011;67077;50.298;18.996;2023-04-06T05:31:56;57.50;;;26.80;;
77880;SDS011;67077;50.298;18.996;2023-04-06T05:34:24;59.20;;;27.70;;
77880;SDS011;67077;50.298;18.996;2023-04-06T05:36:52;60.90;;;25.90;;
77880;SDS011;67077;50.298;18.996;2023-04-06T05:39:20;67.80;;;27.20;;
77880;SDS011;67077;50.298;18.996;2023-04-06T05:41:49;67.20;;;28.60;;
77880;SDS011;67077;50.298;18.996;2023-04-06T05:44:17;59.50;;;25.50;;
77880;SDS011;67077;50.298;18.996;2023-04-06T05:46:45;62.80;;;27.90;;
77880;SDS011;67077;50.298;18.996;2023-04-06T05:49:13;71.40;;;30.90;;
77880;SDS011;67077;50.298;18.996;2023-04-06T05:51:40;70.00;;;31.10;;
77880;SDS011;67077;50.298;18.996;2023-04-06T05:54:08;78.40;;;32.20;;
77880;SDS011;67077;50.298;18.996;2023-04-06T05:56:36;80.30;;;30.70;;
77880;SDS011;67077;50.298;18.996;2023-04-06T05:59:04;70.00;;;30.60;;
77880;SDS011;67077;50.298;18.996;2023-04-06T06:01:33;74.50;;;30.30;;
77880;SDS011;67077;50.298;18.996;2023-04-06T06:04:02;63.30;;;27.80;;
77880;SDS011;67077;50.298;18.996;2023-04-06T06:06:30;70.10;;;29.30;;
77880;SDS011;67077;50.298;18.996;2023-04-06T06:08:58;66.30;;;27.70;;
77880;SDS011;67077;50.298;18.996;2023-04-06T06:11:28;63.40;;;27.80;;
77880;SDS011;67077;50.298;18.996;2023-04-06T06:13:56;56.60;;;25.10;;
77880;SDS011;67077;50.298;18.996;2023-04-06T06:16:24;56.00;;;24.50;;
77880;SDS011;67077;50.298;18.996;2023-04-06T06:18:52;54.00;;;23.30;;
77880;SDS011;67077;50.298;18.996;2023-04-06T06:21:19;60.40;;;26.10;;
77880;SDS011;67077;50.298;18.996;2023-04-06T06:23:47;60.30;;;25.30;;
77880;SDS011;67077;50.298;18.996;2023-04-06T06:26:16;53.60;;;24.80;;
77880;SDS011;67077;50.298;18.996;2023-04-06T06:28:45;56.80;;;25.50;;
77880;SDS011;67077;50.298;18.996;2023-04-06T06:31:12;51.70;;;23.10;;
77880;SDS011;67077;50.298;18.996;2023-04-06T06:33:40;55.60;;;23.60;;
77880;SDS011;67077;50.298;18.996;2023-04-06T06:36:08;61.50;;;27.00;;
77880;SDS011;67077;50.298;18.996;2023-04-06T06:38:36;54.20;;;26.00;;
77880;SDS011;67077;50.298;18.996;2023-04-06T06:41:05;59.70;;;27.60;;
77880;SDS011;67077;50.298;18.996;2023-04-06T06:43:33;58.10;;;26.40;;
77880;SDS011;67077;50.298;18.996;2023-04-06T06:46:01;62.30;;;26.50;;
77880;SDS011;67077;50.298;18.996;2023-04-06T06:48:30;57.60;;;26.80;;
77880;SDS011;67077;50.298;18.996;2023-04-06T06:50:58;58.00;;;26.90;;
77880;SDS011;67077;50.298;18.996;2023-04-06T06:53:26;62.10;;;28.10;;
77880;SDS011;67077;50.298;18.996;2023-04-06T06:55:54;60.20;;;28.50;;
77880;SDS011;67077;50.298;18.996;2023-04-06T06:58:22;62.70;;;27.70;;
77880;SDS011;67077;50.298;18.996;2023-04-06T07:00:50;62.00;;;29.30;;
77880;SDS011;67077;50.298;18.996;2023-04-06T07:03:18;54.60;;;26.00;;
77880;SDS011;67077;50.298;18.996;2023-04-06T07:05:46;50.30;;;23.80;;
77880;SDS011;67077;50.298;18.996;2023-04-06T07:08:20;53.60;;;22.80;;
77880;SDS011;67077;50.298;18.996;2023-04-06T07:10:50;49.40;;;22.30;;
77880;SDS011;67077;50.298;18.996;2023-04-06T07:13:25;46.10;;;21.40;;
77880;SDS011;67077;50.298;18.996;2023-04-06T07:15:54;49.80;;;22.60;;
77880;SDS011;67077;50.298;18.996;2023-04-06T07:18:22;53.60;;;24.00;;
77880;SDS011;67077;50.298;18.996;2023-04-06T07:20:51;43.20;;;20.30;;
77880;SDS011;67077;50.298;18.996;2023-04-06T07:23:19;42.80;;;19.20;;
77880;SDS011;67077;50.298;18.996;2023-04-06T07:25:46;51.30;;;21.70;;
77880;SDS011;67077;50.298;18.996;2023-04-06T07:28:15;36.70;;;15.80;;
77880;SDS011;67077;50.298;18.996;2023-04-06T07:30:44;34.10;;;15.10;;
77880;SDS011;67077;50.298;18.996;2023-04-06T07:33:12;28.10;;;13.70;;
77880;SDS011;67077;50.298;18.996;2023-04-06T07:35:40;20.30;;;11.80;;
77880;SDS011;67077;50.298;18.996;2023-04-06T07:38:08;26.60;;;12.80;;
77880;SDS011;67077;50.298;18.996;2023-04-06T07:40:36;24.70;;;11.70;;
77880;SDS011;67077;50.298;18.996;2023-04-06T07:43:04;20.70;;;11.20;;
77880;SDS011;67077;50.298;18.996;2023-04-06T07:45:32;20.10;;;11.60;;
77880;SDS011;67077;50.298;18.996;2023-04-06T07:48:00;21.40;;;11.60;;
77880;SDS011;67077;50.298;18.996;2023-04-06T07:50:28;25.90;;;13.00;;
77880;SDS011;67077;50.298;18.996;2023-04-06T07:52:56;24.40;;;11.50;;
77880;SDS011;67077;50.298;18.996;2023-04-06T07:55:25;21.70;;;11.50;;
77880;SDS011;67077;50.298;18.996;2023-04-06T07:57:53;20.40;;;10.20;;
77880;SDS011;67077;50.298;18.996;2023-04-06T08:00:21;23.10;;;11.20;;
77880;SDS011;67077;50.298;18.996;2023-04-06T08:02:49;19.50;;;10.90;;
77880;SDS011;67077;50.298;18.996;2023-04-06T08:05:17;22.20;;;12.10;;
77880;SDS011;67077;50.298;18.996;2023-04-06T08:07:45;19.50;;;11.00;;
77880;SDS011;67077;50.298;18.996;2023-04-06T08:10:13;18.70;;;10.50;;
77880;SDS011;67077;50.298;18.996;2023-04-06T08:12:41;20.90;;;11.40;;
77880;SDS011;67077;50.298;18.996;2023-04-06T08:15:09;17.90;;;11.10;;
77880;SDS011;67077;50.298;18.996;2023-04-06T08:17:38;21.30;;;12.30;;
77880;SDS011;67077;50.298;18.996;2023-04-06T08:20:06;21.40;;;11.90;;
77880;SDS011;67077;50.298;18.996;2023-04-06T08:22:34;21.40;;;11.40;;
77880;SDS011;67077;50.298;18.996;2023-04-06T08:25:02;23.80;;;11.90;;
77880;SDS011;67077;50.298;18.996;2023-04-06T08:27:31;18.70;;;11.00;;
77880;SDS011;67077;50.298;18.996;2023-04-06T08:29:59;21.00;;;10.80;;
77880;SDS011;67077;50.298;18.996;2023-04-06T08:32:27;20.30;;;11.40;;
77880;SDS011;67077;50.298;18.996;2023-04-06T08:34:55;19.90;;;11.10;;
77880;SDS011;67077;50.298;18.996;2023-04-06T08:37:23;21.90;;;11.80;;
77880;SDS011;67077;50.298;18.996;2023-04-06T08:39:51;23.50;;;12.10;;
77880;SDS011;67077;50.298;18.996;2023-04-06T08:42:20;20.70;;;11.60;;
77880;SDS011;67077;50.298;18.996;2023-04-06T08:44:49;20.20;;;11.70;;
77880;SDS011;67077;50.298;18.996;2023-04-06T08:47:19;23.00;;;11.80;;
77880;SDS011;67077;50.298;18.996;2023-04-06T08:49:47;21.00;;;12.30;;
77880;SDS011;67077;50.298;18.996;2023-04-06T08:52:17;21.90;;;12.40;;
77880;SDS011;67077;50.298;18.996;2023-04-06T08:54:46;27.50;;;14.00;;
77880;SDS011;67077;50.298;18.996;2023-04-06T08:57:14;23.60;;;12.30;;
77880;SDS011;67077;50.298;18.996;2023-04-06T08:59:43;24.20;;;13.00;;
77880;SDS011;67077;50.298;18.996;2023-04-06T09:02:15;29.70;;;14.50;;
77880;SDS011;67077;50.298;18.996;2023-04-06T09:04:47;26.80;;;14.80;;
77880;SDS011;67077;50.298;18.996;2023-04-06T09:07:16;27.10;;;15.50;;
77880;SDS011;67077;50.298;18.996;2023-04-06T09:09:44;26.60;;;14.70;;
77880;SDS011;67077;50.298;18.996;2023-04-06T09:12:28;27.10;;;14.60;;
77880;SDS011;67077;50.298;18.996;2023-04-06T09:14:57;31.40;;;15.70;;
77880;SDS011;67077;50.298;18.996;2023-04-06T09:17:31;34.50;;;16.60;;
77880;SDS011;67077;50.298;18.996;2023-04-06T09:20:02;33.60;;;16.80;;
77880;SDS011;67077;50.298;18.996;2023-04-06T09:22:37;30.50;;;16.50;;
77880;SDS011;67077;50.298;18.996;2023-04-06T09:25:09;24.90;;;12.60;;
77880;SDS011;67077;50.298;18.996;2023-04-06T09:27:45;27.10;;;14.80;;
77880;SDS011;67077;50.298;18.996;2023-04-06T09:30:13;25.60;;;13.30;;
77880;SDS011;67077;50.298;18.996;2023-04-06T09:32:47;31.80;;;15.50;;
77880;SDS011;67077;50.298;18.996;2023-04-06T09:35:17;25.40;;;11.80;;
77880;SDS011;67077;50.298;18.996;2023-04-06T09:37:47;23.70;;;13.00;;
77880;SDS011;67077;50.298;18.996;2023-04-06T09:40:17;22.20;;;12.70;;
77880;SDS011;67077;50.298;18.996;2023-04-06T09:42:47;22.70;;;11.90;;
77880;SDS011;67077;50.298;18.996;2023-04-06T09:45:17;23.20;;;12.30;;
77880;SDS011;67077;50.298;18.996;2023-04-06T09:47:46;19.30;;;11.30;;
77880;SDS011;67077;50.298;18.996;2023-04-06T09:50:14;18.40;;;9.80;;
77880;SDS011;67077;50.298;18.996;2023-04-06T09:52:47;16.50;;;9.90;;
77880;SDS011;67077;50.298;18.996;2023-04-06T09:55:20;19.30;;;10.50;;
77880;SDS011;67077;50.298;18.996;2023-04-06T09:58:06;21.00;;;11.60;;
77880;SDS011;67077;50.298;18.996;2023-04-06T10:00:40;20.80;;;11.20;;
77880;SDS011;67077;50.298;18.996;2023-04-06T10:03:14;19.00;;;11.10;;
77880;SDS011;67077;50.298;18.996;2023-04-06T10:05:57;18.10;;;10.50;;
77880;SDS011;67077;50.298;18.996;2023-04-06T10:08:32;19.50;;;10.50;;
77880;SDS011;67077;50.298;18.996;2023-04-06T10:11:03;18.00;;;11.00;;
77880;SDS011;67077;50.298;18.996;2023-04-06T10:13:31;20.00;;;11.00;;
77880;SDS011;67077;50.298;18.996;2023-04-06T10:15:59;19.50;;;11.20;;
77880;SDS011;67077;50.298;18.996;2023-04-06T10:18:28;18.80;;;10.30;;
77880;SDS011;67077;50.298;18.996;2023-04-06T10:21:00;19.70;;;10.90;;
77880;SDS011;67077;50.298;18.996;2023-04-06T10:26:28;18.70;;;10.80;;
77880;SDS011;67077;50.298;18.996;2023-04-06T10:29:01;19.50;;;11.30;;
77880;SDS011;67077;50.298;18.996;2023-04-06T10:31:30;19.80;;;10.70;;
77880;SDS011;67077;50.298;18.996;2023-04-06T10:36:33;20.30;;;11.40;;
77880;SDS011;67077;50.298;18.996;2023-04-06T10:39:05;17.80;;;9.70;;
77880;SDS011;67077;50.298;18.996;2023-04-06T10:41:44;20.00;;;10.80;;
77880;SDS011;67077;50.298;18.996;2023-04-06T10:44:21;16.30;;;9.70;;
77880;SDS011;67077;50.298;18.996;2023-04-06T10:46:59;18.80;;;10.20;;
77880;SDS011;67077;50.298;18.996;2023-04-06T10:49:30;18.70;;;10.50;;
77880;SDS011;67077;50.298;18.996;2023-04-06T10:51:58;20.00;;;10.20;;
77880;SDS011;67077;50.298;18.996;2023-04-06T10:54:26;17.60;;;9.60;;
77880;SDS011;67077;50.298;18.996;2023-04-06T10:56:55;16.90;;;9.60;;
77880;SDS011;67077;50.298;18.996;2023-04-06T10:59:23;17.80;;;9.80;;
77880;SDS011;67077;50.298;18.996;2023-04-06T11:01:52;20.10;;;10.50;;
77880;SDS011;67077;50.298;18.996;2023-04-06T11:04:22;16.40;;;9.60;;
77880;SDS011;67077;50.298;18.996;2023-04-06T11:06:51;15.20;;;8.60;;
77880;SDS011;67077;50.298;18.996;2023-04-06T11:09:23;15.20;;;9.00;;
77880;SDS011;67077;50.298;18.996;2023-04-06T11:11:55;14.10;;;7.90;;
77880;SDS011;67077;50.298;18.996;2023-04-06T11:14:24;12.80;;;8.30;;
77880;SDS011;67077;50.298;18.996;2023-04-06T11:16:53;14.30;;;8.20;;
77880;SDS011;67077;50.298;18.996;2023-04-06T11:19:22;14.90;;;7.90;;
77880;SDS011;67077;50.298;18.996;2023-04-06T11:21:50;13.70;;;8.20;;
77880;SDS011;67077;50.298;18.996;2023-04-06T11:24:20;15.10;;;8.40;;
77880;SDS011;67077;50.298;18.996;2023-04-06T11:26:50;13.10;;;7.70;;
77880;SDS011;67077;50.298;18.996;2023-04-06T11:29:21;17.70;;;9.50;;
77880;SDS011;67077;50.298;18.996;2023-04-06T11:34:25;13.80;;;8.40;;
77880;SDS011;67077;50.298;18.996;2023-04-06T11:36:57;16.70;;;8.80;;
77880;SDS011;67077;50.298;18.996;2023-04-06T11:39:27;14.10;;;7.70;;
77880;SDS011;67077;50.298;18.996;2023-04-06T11:42:00;14.30;;;8.40;;
77880;SDS011;67077;50.298;18.996;2023-04-06T11:44:39;14.60;;;8.00;;
77880;SDS011;67077;50.298;18.996;2023-04-06T11:47:11;16.30;;;8.40;;
77880;SDS011;67077;50.298;18.996;2023-04-06T11:49:41;14.50;;;7.70;;
77880;SDS011;67077;50.298;18.996;2023-04-06T11:52:20;14.50;;;8.10;;
77880;SDS011;67077;50.298;18.996;2023-04-06T11:54:53;12.70;;;7.80;;
77880;SDS011;67077;50.298;18.996;2023-04-06T11:57:22;12.80;;;7.40;;
77880;SDS011;67077;50.298;18.996;2023-04-06T11:59:53;12.20;;;7.20;;
77880;SDS011;67077;50.298;18.996;2023-04-06T12:02:21;15.40;;;7.70;;
77880;SDS011;67077;50.298;18.996;2023-04-06T12:04:49;16.00;;;8.60;;
77880;SDS011;67077;50.298;18.996;2023-04-06T12:07:17;12.70;;;7.00;;
77880;SDS011;67077;50.298;18.996;2023-04-06T12:09:45;15.70;;;8.10;;
77880;SDS011;67077;50.298;18.996;2023-04-06T12:12:13;17.70;;;9.40;;
77880;SDS011;67077;50.298;18.996;2023-04-06T12:14:41;12.40;;;6.50;;
77880;SDS011;67077;50.298;18.996;2023-04-06T12:17:09;16.30;;;8.00;;
77880;SDS011;67077;50.298;18.996;2023-04-06T12:19:36;14.20;;;8.50;;
77880;SDS011;67077;50.298;18.996;2023-04-06T12:22:04;18.10;;;7.40;;
77880;SDS011;67077;50.298;18.996;2023-04-06T12:24:32;16.80;;;9.20;;
77880;SDS011;67077;50.298;18.996;2023-04-06T12:27:12;15.30;;;8.80;;
77880;SDS011;67077;50.298;18.996;2023-04-06T12:29:40;17.50;;;8.10;;
77880;SDS011;67077;50.298;18.996;2023-04-06T12:32:08;14.90;;;7.60;;
77880;SDS011;67077;50.298;18.996;2023-04-06T12:34:37;12.40;;;7.10;;
77880;SDS011;67077;50.298;18.996;2023-04-06T12:37:06;12.50;;;7.10;;
77880;SDS011;67077;50.298;18.996;2023-04-06T12:39:35;13.30;;;7.20;;
77880;SDS011;67077;50.298;18.996;2023-04-06T12:42:10;14.00;;;7.70;;
77880;SDS011;67077;50.298;18.996;2023-04-06T12:44:39;14.80;;;7.30;;
77880;SDS011;67077;50.298;18.996;2023-04-06T12:47:10;12.70;;;7.40;;
77880;SDS011;67077;50.298;18.996;2023-04-06T12:49:38;16.40;;;8.10;;
77880;SDS011;67077;50.298;18.996;2023-04-06T12:52:06;15.10;;;8.00;;
77880;SDS011;67077;50.298;18.996;2023-04-06T12:54:34;15.60;;;7.60;;
77880;SDS011;67077;50.298;18.996;2023-04-06T12:57:02;13.70;;;8.20;;
77880;SDS011;67077;50.298;18.996;2023-04-06T12:59:30;15.00;;;8.30;;
77880;SDS011;67077;50.298;18.996;2023-04-06T13:04:44;15.30;;;9.20;;
77880;SDS011;67077;50.298;18.996;2023-04-06T13:07:16;15.90;;;8.80;;
77880;SDS011;67077;50.298;18.996;2023-04-06T13:09:44;17.10;;;9.20;;
77880;SDS011;67077;50.298;18.996;2023-04-06T13:12:16;18.70;;;10.80;;
77880;SDS011;67077;50.298;18.996;2023-04-06T13:14:44;22.60;;;11.70;;
77880;SDS011;67077;50.298;18.996;2023-04-06T13:17:15;21.50;;;12.50;;
77880;SDS011;67077;50.298;18.996;2023-04-06T13:19:44;24.10;;;13.10;;
77880;SDS011;67077;50.298;18.996;2023-04-06T13:22:12;22.40;;;12.70;;
77880;SDS011;67077;50.298;18.996;2023-04-06T13:24:40;23.00;;;11.60;;
77880;SDS011;67077;50.298;18.996;2023-04-06T13:27:31;24.60;;;13.50;;
77880;SDS011;67077;50.298;18.996;2023-04-06T13:30:03;22.80;;;13.40;;
77880;SDS011;67077;50.298;18.996;2023-04-06T13:32:32;21.70;;;12.50;;
77880;SDS011;67077;50.298;18.996;2023-04-06T13:35:00;22.80;;;13.20;;
77880;SDS011;67077;50.298;18.996;2023-04-06T13:37:30;25.20;;;13.60;;
77880;SDS011;67077;50.298;18.996;2023-04-06T13:39:58;25.20;;;14.00;;
77880;SDS011;67077;50.298;18.996;2023-04-06T13:42:26;23.30;;;14.30;;
77880;SDS011;67077;50.298;18.996;2023-04-06T13:44:55;24.20;;;13.00;;
77880;SDS011;67077;50.298;18.996;2023-04-06T13:47:23;20.40;;;13.10;;
77880;SDS011;67077;50.298;18.996;2023-04-06T13:49:51;22.30;;;13.30;;
77880;SDS011;67077;50.298;18.996;2023-04-06T13:52:20;25.40;;;13.20;;
77880;SDS011;67077;50.298;18.996;2023-04-06T13:54:49;23.70;;;13.90;;
77880;SDS011;67077;50.298;18.996;2023-04-06T13:57:17;26.30;;;13.50;;
77880;SDS011;67077;50.298;18.996;2023-04-06T13:59:45;24.80;;;13.50;;
77880;SDS011;67077;50.298;18.996;2023-04-06T14:02:13;23.10;;;12.40;;
77880;SDS011;67077;50.298;18.996;2023-04-06T14:04:41;23.00;;;12.70;;
77880;SDS011;67077;50.298;18.996;2023-04-06T14:07:09;30.00;;;14.40;;
77880;SDS011;67077;50.298;18.996;2023-04-06T14:09:37;34.70;;;17.10;;
77880;SDS011;67077;50.298;18.996;2023-04-06T14:12:05;29.10;;;16.80;;
77880;SDS011;67077;50.298;18.996;2023-04-06T14:14:33;28.70;;;17.50;;
77880;SDS011;67077;50.298;18.996;2023-04-06T14:17:01;30.10;;;17.60;;
77880;SDS011;67077;50.298;18.996;2023-04-06T14:19:29;27.10;;;15.80;;
77880;SDS011;67077;50.298;18.996;2023-04-06T14:21:57;28.10;;;16.30;;
77880;SDS011;67077;50.298;18.996;2023-04-06T14:24:26;28.80;;;16.20;;
77880;SDS011;67077;50.298;18.996;2023-04-06T14:26:54;29.80;;;16.50;;
77880;SDS011;67077;50.298;18.996;2023-04-06T14:29:23;30.00;;;16.00;;
77880;SDS011;67077;50.298;18.996;2023-04-06T14:31:51;24.80;;;14.90;;
77880;SDS011;67077;50.298;18.996;2023-04-06T14:34:19;28.50;;;14.40;;
77880;SDS011;67077;50.298;18.996;2023-04-06T14:36:48;24.40;;;14.30;;